FUO weather

Foshan Shadi Airport
Foshan, Guangdong Province, China

Public forecast

Using degrees Celsius for public forecast. Weather courtesy of forecast.io.

METAR (pilot weather report)

Closest report is Guangzhou Baiyun International Airport, 22.5 nm (41.6 km) NE. Retrieved 2019/05/21 16:30 UTC (0 seconds ago):

ZGGG 211630Z VRB01MPS 4000 BR SCT013 OVC026 25/23 Q1010 NOSIG

TAF (pilot weather forecast)

Closest forecast is Guangzhou Baiyun International Airport, 22.5 nm (41.6 km) NE. Retrieved 2019/05/21 12:00 UTC (4 hours ago):

TAF ZGGG 210908Z 2112/2212 12003MPS 8000 BKN040 TX31/2207Z TN25/2122Z TEMPO 2120/2202 3500 SHRA SCT011 FEW030CB BKN033 TEMPO 2206/2212 2000 TSRA SCT011 SCT030CB BKN033